createdAt,value
2022-11-29T00:01:14.908Z,12.97
2022-11-29T00:03:41.624Z,15.27
2022-11-29T00:06:11.218Z,14.20
2022-11-29T00:08:38.074Z,13.20
2022-11-29T00:11:13.630Z,13.30
2022-11-29T00:13:40.602Z,13.27
2022-11-29T00:16:10.203Z,13.13
2022-11-29T00:18:37.503Z,13.27
2022-11-29T00:21:08.688Z,12.23
2022-11-29T00:23:36.030Z,14.37
2022-11-29T00:26:04.733Z,12.93
2022-11-29T00:28:31.623Z,12.33
2022-11-29T00:30:58.348Z,12.13
2022-11-29T00:33:25.228Z,13.50
2022-11-29T00:35:51.909Z,13.07
2022-11-29T00:38:18.637Z,12.30
2022-11-29T00:40:50.235Z,12.93
2022-11-29T00:43:16.890Z,12.70
2022-11-29T00:45:43.913Z,12.73
2022-11-29T00:48:10.555Z,13.70
2022-11-29T00:50:37.193Z,11.73
2022-11-29T00:53:04.026Z,12.25
2022-11-29T00:55:30.686Z,12.20
2022-11-29T00:57:57.340Z,12.50
2022-11-29T01:00:24.116Z,12.50
2022-11-29T01:02:51.052Z,12.10
2022-11-29T01:05:17.815Z,13.07
2022-11-29T01:07:44.660Z,11.53
2022-11-29T01:10:11.577Z,11.17
2022-11-29T01:12:39.677Z,12.57
2022-11-29T01:15:07.833Z,12.43
2022-11-29T01:17:39.304Z,12.67
2022-11-29T01:20:08.026Z,12.43
2022-11-29T01:22:35.719Z,10.90
2022-11-29T01:25:03.419Z,12.27
2022-11-29T01:27:30.151Z,12.80
2022-11-29T01:29:56.818Z,11.48
2022-11-29T01:32:23.489Z,11.10
2022-11-29T01:34:50.347Z,11.30
2022-11-29T01:37:17.052Z,12.43
2022-11-29T01:39:43.771Z,11.03
2022-11-29T01:42:12.332Z,10.80
2022-11-29T01:44:38.927Z,11.00
2022-11-29T01:47:06.029Z,12.37
2022-11-29T01:49:37.202Z,11.80
2022-11-29T01:52:09.605Z,11.50
2022-11-29T01:54:42.176Z,10.63
2022-11-29T01:57:10.277Z,11.33
2022-11-29T01:59:41.249Z,11.67
2022-11-29T02:02:18.179Z,11.37
2022-11-29T02:04:46.925Z,11.10
2022-11-29T02:07:14.282Z,11.43
2022-11-29T02:09:41.365Z,11.40
2022-11-29T02:12:26.285Z,11.80
2022-11-29T02:15:20.295Z,10.63
2022-11-29T02:17:55.024Z,11.47
2022-11-29T02:20:48.070Z,11.55
2022-11-29T02:23:36.877Z,11.23
2022-11-29T02:26:22.372Z,11.35
2022-11-29T02:29:07.837Z,10.70
2022-11-29T02:31:52.965Z,11.20
2022-11-29T02:34:46.130Z,10.57
2022-11-29T02:37:37.492Z,9.87
2022-11-29T02:40:16.137Z,10.30
2022-11-29T02:43:06.499Z,10.65
2022-11-29T02:45:57.410Z,10.80
2022-11-29T02:49:03.020Z,10.27
2022-11-29T02:51:41.078Z,9.52
2022-11-29T02:54:35.504Z,10.77
2022-11-29T02:57:25.924Z,10.50
2022-11-29T03:00:09.967Z,10.30
2022-11-29T03:02:56.236Z,10.48
2022-11-29T03:05:34.965Z,10.00
2022-11-29T03:08:29.918Z,10.10
2022-11-29T03:11:02.807Z,10.47
2022-11-29T03:13:38.012Z,10.82
2022-11-29T03:16:51.294Z,10.47
2022-11-29T03:19:23.963Z,9.60
2022-11-29T03:22:22.635Z,10.83
2022-11-29T03:25:01.276Z,10.80
2022-11-29T03:27:40.018Z,10.80
2022-11-29T03:30:10.393Z,10.77
2022-11-29T03:33:09.168Z,11.37
2022-11-29T03:36:00.575Z,11.90
2022-11-29T03:38:41.265Z,11.23
2022-11-29T03:41:33.383Z,11.10
2022-11-29T03:44:03.209Z,12.30
2022-11-29T03:46:48.403Z,10.65
2022-11-29T03:49:23.922Z,11.50
2022-11-29T03:52:23.122Z,11.13
2022-11-29T03:55:19.046Z,12.67
2022-11-29T03:58:04.493Z,11.93
2022-11-29T04:01:09.196Z,11.15
2022-11-29T04:04:09.724Z,10.80
2022-11-29T04:06:45.249Z,12.50
2022-11-29T04:09:34.142Z,11.90
2022-11-29T04:12:38.490Z,11.60
2022-11-29T04:15:30.137Z,15.10
2022-11-29T04:18:08.805Z,11.07
2022-11-29T04:20:53.473Z,11.70
2022-11-29T04:23:45.046Z,11.93
2022-11-29T04:26:39.827Z,11.97
2022-11-29T04:29:27.704Z,12.10
2022-11-29T04:32:14.258Z,12.00
2022-11-29T04:35:37.141Z,11.35
2022-11-29T04:38:03.769Z,11.83
2022-11-29T04:41:14.051Z,11.30
2022-11-29T04:43:59.260Z,11.57
2022-11-29T04:46:47.908Z,11.17
2022-11-29T04:49:35.801Z,10.70
2022-11-29T04:52:15.071Z,11.93
2022-11-29T04:55:31.341Z,11.03
2022-11-29T04:58:04.794Z,10.83
2022-11-29T05:00:39.261Z,11.17
2022-11-29T05:03:27.797Z,11.13
2022-11-29T05:06:27.832Z,11.37
2022-11-29T05:09:10.990Z,10.37
2022-11-29T05:12:02.694Z,11.10
2022-11-29T05:14:50.056Z,10.33
2022-11-29T05:17:55.582Z,10.57
2022-11-29T05:20:38.827Z,10.73
2022-11-29T05:23:14.693Z,11.10
2022-11-29T05:25:41.351Z,10.43
2022-11-29T05:28:24.561Z,9.07
2022-11-29T05:31:13.022Z,11.00
2022-11-29T05:34:07.810Z,10.67
2022-11-29T05:36:54.737Z,9.80
2022-11-29T05:39:44.768Z,10.57
2022-11-29T05:42:26.796Z,10.57
2022-11-29T05:45:03.314Z,10.37
2022-11-29T05:47:40.033Z,10.10
2022-11-29T05:50:17.507Z,11.13
2022-11-29T05:52:58.943Z,10.40
2022-11-29T05:55:42.952Z,11.47
2022-11-29T05:58:30.289Z,10.27
2022-11-29T06:01:10.313Z,9.60
2022-11-29T06:03:41.654Z,9.33
2022-11-29T06:06:22.535Z,9.13
2022-11-29T06:09:14.205Z,9.50
2022-11-29T06:11:50.641Z,10.15
2022-11-29T06:15:10.428Z,9.50
2022-11-29T06:17:55.953Z,9.90
2022-11-29T06:20:41.299Z,10.32
2022-11-29T06:23:29.062Z,10.10
2022-11-29T06:26:16.847Z,9.90
2022-11-29T06:29:12.541Z,10.93
2022-11-29T06:31:46.410Z,10.53
2022-11-29T06:34:29.147Z,11.50
2022-11-29T06:37:13.316Z,11.70
2022-11-29T06:39:40.322Z,10.37
2022-11-29T06:42:07.004Z,10.70
2022-11-29T06:44:34.237Z,10.63
2022-11-29T06:47:06.756Z,10.17
2022-11-29T06:50:21.159Z,10.65
2022-11-29T06:53:18.741Z,10.10
2022-11-29T06:55:52.815Z,10.30
2022-11-29T06:58:50.982Z,10.70
2022-11-29T07:01:45.877Z,10.15
2022-11-29T07:04:31.367Z,10.23
2022-11-29T07:06:58.600Z,10.90
2022-11-29T07:09:35.623Z,11.90
2022-11-29T07:12:02.589Z,10.55
2022-11-29T07:14:29.530Z,12.00
2022-11-29T07:17:17.671Z,11.03
2022-11-29T07:19:47.244Z,11.73
2022-11-29T07:23:01.354Z,11.90
2022-11-29T07:25:51.187Z,11.47
2022-11-29T07:28:41.786Z,11.77
2022-11-29T07:31:11.823Z,12.90
2022-11-29T07:33:52.408Z,12.40
2022-11-29T07:36:57.767Z,12.70
2022-11-29T07:39:56.618Z,12.05
2022-11-29T07:42:41.397Z,12.73
2022-11-29T07:45:23.279Z,12.02
2022-11-29T07:47:50.397Z,12.38
2022-11-29T07:50:17.266Z,13.00
2022-11-29T07:52:44.045Z,12.90
2022-11-29T07:55:18.683Z,13.18
2022-11-29T07:57:46.314Z,13.60
2022-11-29T08:00:13.960Z,12.13
2022-11-29T08:02:41.420Z,12.50
2022-11-29T08:05:08.825Z,12.43
2022-11-29T08:07:37.467Z,14.27
2022-11-29T08:10:07.014Z,12.60
2022-11-29T08:12:33.757Z,13.80
2022-11-29T08:15:00.773Z,13.33
2022-11-29T08:17:27.540Z,13.53
2022-11-29T08:19:54.197Z,14.40
2022-11-29T08:22:20.910Z,13.40
2022-11-29T08:24:48.033Z,13.90
2022-11-29T08:27:14.907Z,14.70
2022-11-29T08:29:41.638Z,12.90
2022-11-29T08:32:09.035Z,12.98
2022-11-29T08:34:36.345Z,13.50
2022-11-29T08:37:03.159Z,12.00
2022-11-29T08:39:29.817Z,11.47
2022-11-29T08:41:56.490Z,13.20
2022-11-29T08:44:23.848Z,11.73
2022-11-29T08:47:09.122Z,12.03
2022-11-29T08:49:35.837Z,12.40
2022-11-29T08:52:21.040Z,12.80
2022-11-29T08:54:48.153Z,12.03
2022-11-29T08:57:39.509Z,12.33
2022-11-29T09:00:02.049Z,12.55
2022-11-29T09:02:28.782Z,12.60
2022-11-29T09:04:55.451Z,11.80
2022-11-29T09:07:22.435Z,12.18
2022-11-29T09:09:49.113Z,12.40
2022-11-29T09:12:15.805Z,11.67
2022-11-29T09:14:42.717Z,12.60
2022-11-29T09:17:09.676Z,11.90
2022-11-29T09:19:36.400Z,11.40
2022-11-29T09:22:03.567Z,11.97
2022-11-29T09:24:30.233Z,11.47
2022-11-29T09:26:56.900Z,13.27
2022-11-29T09:29:23.564Z,12.13
2022-11-29T09:31:50.396Z,11.40
2022-11-29T09:34:18.575Z,11.70
2022-11-29T09:36:45.429Z,11.53
2022-11-29T09:39:12.471Z,11.10
2022-11-29T09:41:51.478Z,11.90
2022-11-29T09:44:37.402Z,11.30
2022-11-29T09:47:33.054Z,11.50
2022-11-29T09:50:24.648Z,10.57
2022-11-29T09:53:26.054Z,10.57
2022-11-29T09:56:18.556Z,10.40
2022-11-29T09:59:18.274Z,10.02
2022-11-29T10:01:50.413Z,9.85
2022-11-29T10:04:21.396Z,10.00
2022-11-29T10:07:14.093Z,9.77
2022-11-29T10:09:48.921Z,9.30
2022-11-29T10:12:39.869Z,9.50
2022-11-29T10:15:10.977Z,9.03
2022-11-29T10:17:43.339Z,8.60
2022-11-29T10:20:25.852Z,7.77
2022-11-29T10:23:16.152Z,7.70
2022-11-29T10:25:47.582Z,8.70
2022-11-29T10:28:17.349Z,7.63
2022-11-29T10:30:44.886Z,8.50
2022-11-29T10:33:20.850Z,7.90
2022-11-29T10:35:50.792Z,7.73
2022-11-29T10:38:32.819Z,8.07
2022-11-29T10:41:13.222Z,7.07
2022-11-29T10:43:40.028Z,7.60
2022-11-29T10:46:15.250Z,7.20
2022-11-29T10:48:42.251Z,7.00
2022-11-29T10:51:17.512Z,6.90
2022-11-29T10:53:45.025Z,6.33
2022-11-29T10:56:22.383Z,6.93
2022-11-29T10:59:07.864Z,7.27
2022-11-29T11:01:42.099Z,6.67
2022-11-29T11:04:15.876Z,7.67
2022-11-29T11:06:56.165Z,6.00
2022-11-29T11:09:35.381Z,6.83
2022-11-29T11:12:06.827Z,6.90
2022-11-29T11:14:39.418Z,6.33
2022-11-29T11:17:27.642Z,7.40
2022-11-29T11:20:02.027Z,6.93
2022-11-29T11:22:30.724Z,7.10
2022-11-29T11:25:06.731Z,5.67
2022-11-29T11:27:39.729Z,6.33
2022-11-29T11:30:18.753Z,6.07
2022-11-29T11:33:08.289Z,6.03
2022-11-29T11:35:37.181Z,5.80
2022-11-29T11:38:03.831Z,6.13
2022-11-29T11:40:31.190Z,6.57
2022-11-29T11:43:01.665Z,6.07
2022-11-29T11:45:34.984Z,8.20
2022-11-29T11:48:13.425Z,6.23
2022-11-29T11:50:57.073Z,6.23
2022-11-29T11:53:23.720Z,6.13
2022-11-29T11:56:02.525Z,6.77
2022-11-29T11:58:47.093Z,6.40
2022-11-29T12:01:16.943Z,5.80
2022-11-29T12:04:02.503Z,5.10
2022-11-29T12:06:38.008Z,5.57
2022-11-29T12:09:04.892Z,6.00
2022-11-29T12:11:41.379Z,5.67
2022-11-29T12:14:15.232Z,30.67
2022-11-29T12:16:43.248Z,10.53
2022-11-29T12:19:19.180Z,8.67
2022-11-29T12:21:52.498Z,7.20
2022-11-29T12:24:29.039Z,7.10
2022-11-29T12:27:00.643Z,6.90
2022-11-29T12:29:32.843Z,6.13
2022-11-29T12:32:21.639Z,7.10
2022-11-29T12:35:20.736Z,6.37
2022-11-29T12:38:20.796Z,6.50
2022-11-29T12:41:18.320Z,7.43
2022-11-29T12:44:11.509Z,6.97
2022-11-29T12:46:39.691Z,6.17
2022-11-29T12:49:24.819Z,6.30
2022-11-29T12:52:19.390Z,6.47
2022-11-29T12:55:05.391Z,7.20
2022-11-29T12:57:59.991Z,7.30
2022-11-29T13:00:32.964Z,7.37
2022-11-29T13:03:29.564Z,6.63
2022-11-29T13:06:13.558Z,7.60
2022-11-29T13:09:07.906Z,7.40
2022-11-29T13:11:48.161Z,7.50
2022-11-29T13:14:43.363Z,7.23
2022-11-29T13:17:29.419Z,7.73
2022-11-29T13:20:01.840Z,9.27
2022-11-29T13:22:51.896Z,8.43
2022-11-29T13:25:24.370Z,11.80
2022-11-29T13:28:25.542Z,15.90
2022-11-29T13:30:56.921Z,13.60
2022-11-29T13:33:56.879Z,13.63
2022-11-29T13:36:53.241Z,13.13
2022-11-29T13:39:38.511Z,12.83
2022-11-29T13:42:33.327Z,15.10
2022-11-29T13:45:03.096Z,16.87
2022-11-29T13:47:29.854Z,14.90
2022-11-29T13:50:06.519Z,16.87
2022-11-29T13:52:48.301Z,20.80
2022-11-29T13:55:15.365Z,19.43
2022-11-29T13:58:19.230Z,19.60
2022-11-29T14:00:45.924Z,19.63
2022-11-29T14:03:21.856Z,19.10
2022-11-29T14:05:54.933Z,18.70
2022-11-29T14:09:17.933Z,18.33
2022-11-29T14:11:42.143Z,19.10
2022-11-29T14:14:41.326Z,18.00
2022-11-29T14:17:35.880Z,17.83
2022-11-29T14:20:30.510Z,17.17
2022-11-29T14:23:29.536Z,18.00
2022-11-29T14:25:59.127Z,20.80
2022-11-29T14:28:35.264Z,16.90
2022-11-29T14:31:03.646Z,20.37
2022-11-29T14:33:58.113Z,20.40
2022-11-29T14:36:48.399Z,21.47
2022-11-29T14:39:27.249Z,22.07
2022-11-29T14:42:14.600Z,27.50
2022-11-29T14:44:53.339Z,23.13
2022-11-29T14:47:46.045Z,20.90
2022-11-29T14:50:37.965Z,21.27
2022-11-29T14:53:06.590Z,22.17
2022-11-29T14:55:38.240Z,21.10
2022-11-29T14:58:16.391Z,21.10
2022-11-29T15:00:48.847Z,20.30
2022-11-29T15:03:33.200Z,21.07
2022-11-29T15:06:24.177Z,21.70
2022-11-29T15:09:02.807Z,23.90
2022-11-29T15:11:50.121Z,23.07
2022-11-29T15:14:54.180Z,23.60
2022-11-29T15:17:55.928Z,23.03
2022-11-29T15:20:40.726Z,22.40
2022-11-29T15:23:14.753Z,19.57
2022-11-29T15:25:49.944Z,22.53
2022-11-29T15:28:29.751Z,23.83
2022-11-29T15:31:06.283Z,23.90
2022-11-29T15:33:35.920Z,25.30
2022-11-29T15:36:15.684Z,26.63
2022-11-29T15:38:50.961Z,27.67
2022-11-29T15:41:20.659Z,26.80
2022-11-29T15:43:54.272Z,24.10
2022-11-29T15:46:25.000Z,25.20
2022-11-29T15:48:51.651Z,26.43
2022-11-29T15:51:30.719Z,25.77
2022-11-29T15:54:18.817Z,39.80
2022-11-29T15:56:45.704Z,28.50
2022-11-29T15:59:20.109Z,27.83
2022-11-29T16:01:51.477Z,26.27
2022-11-29T16:04:20.139Z,28.10
2022-11-29T16:06:48.600Z,25.87
2022-11-29T16:09:22.803Z,30.13
2022-11-29T16:11:49.736Z,27.40
2022-11-29T16:14:25.896Z,27.63
2022-11-29T16:16:55.199Z,32.30
2022-11-29T16:19:39.193Z,34.43
2022-11-29T16:22:16.710Z,31.30
2022-11-29T16:25:02.495Z,32.10
2022-11-29T16:27:33.068Z,29.33
2022-11-29T16:30:00.608Z,31.93
2022-11-29T16:32:29.035Z,29.17
2022-11-29T16:34:57.818Z,29.43
2022-11-29T16:37:34.718Z,29.00
2022-11-29T16:40:02.027Z,28.90
2022-11-29T16:42:33.544Z,29.97
2022-11-29T16:45:03.409Z,30.17
2022-11-29T16:47:31.849Z,28.53
2022-11-29T16:50:01.563Z,30.00
2022-11-29T16:52:34.138Z,29.00
2022-11-29T16:55:01.051Z,28.00
2022-11-29T16:57:29.796Z,26.97
2022-11-29T16:59:56.503Z,25.33
2022-11-29T17:02:23.370Z,32.57
2022-11-29T17:04:51.175Z,27.00
2022-11-29T17:07:28.270Z,25.13
2022-11-29T17:09:55.497Z,24.77
2022-11-29T17:12:22.258Z,25.20
2022-11-29T17:14:48.958Z,28.33
2022-11-29T17:17:16.806Z,26.20
2022-11-29T17:19:43.549Z,26.97
2022-11-29T17:22:11.036Z,25.90
2022-11-29T17:24:43.430Z,28.70
2022-11-29T17:27:13.014Z,28.83
2022-11-29T17:29:39.680Z,28.20
2022-11-29T17:32:06.502Z,29.83
2022-11-29T17:34:33.737Z,28.73
2022-11-29T17:37:00.562Z,27.40
2022-11-29T17:39:27.321Z,29.83
2022-11-29T17:41:54.108Z,28.50
2022-11-29T17:44:20.760Z,29.53
2022-11-29T17:46:47.379Z,29.93
2022-11-29T17:49:14.112Z,26.63
2022-11-29T17:51:56.442Z,27.90
2022-11-29T17:54:23.538Z,27.23
2022-11-29T17:56:50.935Z,29.87
2022-11-29T17:59:17.742Z,28.50
2022-11-29T18:01:46.916Z,28.40
2022-11-29T18:04:13.918Z,27.40
2022-11-29T18:06:41.052Z,28.57
2022-11-29T18:09:09.960Z,28.57
2022-11-29T18:11:47.127Z,27.47
2022-11-29T18:14:18.378Z,27.20
2022-11-29T18:16:45.620Z,26.93
2022-11-29T18:19:15.337Z,26.73
2022-11-29T18:21:42.599Z,26.27
2022-11-29T18:24:10.069Z,25.43
2022-11-29T18:26:37.857Z,26.63
2022-11-29T18:29:05.959Z,24.37
2022-11-29T18:31:35.250Z,26.53
2022-11-29T18:34:06.738Z,25.70
2022-11-29T18:36:36.072Z,37.83
2022-11-29T18:39:14.656Z,44.20
2022-11-29T18:41:43.529Z,34.87
2022-11-29T18:44:13.190Z,27.20
2022-11-29T18:46:41.151Z,24.80
2022-11-29T18:49:09.945Z,24.93
2022-11-29T18:51:37.849Z,27.47
2022-11-29T18:54:05.691Z,25.33
2022-11-29T18:56:34.621Z,26.67
2022-11-29T18:59:14.255Z,25.02
2022-11-29T19:01:42.527Z,25.90
2022-11-29T19:04:12.805Z,25.05
2022-11-29T19:06:40.314Z,24.83
2022-11-29T19:09:11.095Z,23.67
2022-11-29T19:11:37.965Z,25.90
2022-11-29T19:14:10.953Z,22.48
2022-11-29T19:16:39.629Z,20.60
2022-11-29T19:19:07.067Z,21.52
2022-11-29T19:21:34.594Z,21.63
2022-11-29T19:24:03.885Z,22.13
2022-11-29T19:26:31.802Z,22.40
2022-11-29T19:29:00.325Z,22.27
2022-11-29T19:31:28.001Z,23.30
2022-11-29T19:33:55.407Z,22.35
2022-11-29T19:36:31.093Z,22.83
2022-11-29T19:39:01.795Z,23.88
2022-11-29T19:41:31.253Z,21.08
2022-11-29T19:44:00.027Z,22.02
2022-11-29T19:46:39.518Z,22.93
2022-11-29T19:49:07.633Z,22.47
2022-11-29T19:51:35.128Z,22.52
2022-11-29T19:54:03.772Z,21.77
2022-11-29T19:56:31.623Z,23.27
2022-11-29T19:59:01.892Z,22.67
2022-11-29T20:01:37.908Z,21.77
2022-11-29T20:04:07.460Z,23.00
2022-11-29T20:06:34.435Z,23.03
2022-11-29T20:09:01.837Z,22.07
2022-11-29T20:11:28.547Z,21.47
2022-11-29T20:13:58.225Z,20.93
2022-11-29T20:16:25.671Z,21.07
2022-11-29T20:18:53.121Z,21.83
2022-11-29T20:21:23.002Z,21.47
2022-11-29T20:23:49.871Z,20.93
2022-11-29T20:26:19.138Z,21.33
2022-11-29T20:28:47.355Z,21.00
2022-11-29T20:31:16.608Z,21.50
2022-11-29T20:33:45.168Z,20.20
2022-11-29T20:36:24.472Z,21.23
2022-11-29T20:38:55.600Z,22.47
2022-11-29T20:41:32.737Z,23.70
2022-11-29T20:44:03.036Z,24.67
2022-11-29T20:46:30.406Z,25.60
2022-11-29T20:49:01.659Z,27.55
2022-11-29T20:51:48.410Z,27.90
2022-11-29T20:54:18.237Z,28.80
2022-11-29T20:56:44.882Z,30.30
2022-11-29T20:59:11.864Z,29.60
2022-11-29T21:01:38.572Z,26.87
2022-11-29T21:04:05.395Z,29.63
2022-11-29T21:06:35.329Z,30.67
2022-11-29T21:09:02.161Z,29.40
2022-11-29T21:11:28.877Z,29.33
2022-11-29T21:13:55.989Z,27.70
2022-11-29T21:16:30.302Z,30.48
2022-11-29T21:19:00.708Z,32.25
2022-11-29T21:21:30.326Z,32.90
2022-11-29T21:24:23.391Z,36.85
2022-11-29T21:26:53.782Z,46.60
2022-11-29T21:29:22.872Z,28.95
2022-11-29T21:31:54.204Z,29.05
2022-11-29T21:34:22.205Z,28.38
2022-11-29T21:36:59.796Z,29.00
2022-11-29T21:39:34.147Z,28.27
2022-11-29T21:42:00.909Z,28.00
2022-11-29T21:44:27.609Z,27.85
2022-11-29T21:46:54.312Z,25.42
2022-11-29T21:49:20.981Z,25.45
2022-11-29T21:51:47.625Z,25.50
2022-11-29T21:54:14.327Z,25.10
2022-11-29T21:56:41.044Z,28.27
2022-11-29T21:59:07.725Z,26.60
2022-11-29T22:01:34.547Z,26.27
2022-11-29T22:04:01.345Z,26.65
2022-11-29T22:06:29.307Z,23.88
2022-11-29T22:08:56.988Z,24.35
2022-11-29T22:11:34.294Z,24.48
2022-11-29T22:14:19.117Z,25.95
2022-11-29T22:16:57.306Z,24.63
2022-11-29T22:19:29.953Z,24.10
2022-11-29T22:22:02.488Z,23.98
2022-11-29T22:24:31.467Z,25.52
2022-11-29T22:26:58.213Z,23.45
2022-11-29T22:29:25.212Z,24.88
2022-11-29T22:31:54.192Z,22.23
2022-11-29T22:34:23.211Z,25.98
2022-11-29T22:36:49.876Z,26.40
2022-11-29T22:39:16.728Z,25.25
2022-11-29T22:41:43.657Z,24.40
2022-11-29T22:44:10.384Z,27.17
2022-11-29T22:46:39.408Z,25.38
2022-11-29T22:49:06.243Z,24.13
2022-11-29T22:51:35.504Z,25.10
2022-11-29T22:54:07.625Z,23.50
2022-11-29T22:56:37.028Z,27.05
2022-11-29T22:59:04.541Z,24.95
2022-11-29T23:01:33.386Z,27.30
2022-11-29T23:04:03.909Z,26.27
2022-11-29T23:06:33.156Z,25.75
2022-11-29T23:09:05.271Z,26.50
2022-11-29T23:11:32.028Z,24.77
2022-11-29T23:13:58.748Z,26.23
2022-11-29T23:16:28.403Z,27.58
2022-11-29T23:18:58.069Z,24.83
2022-11-29T23:21:30.650Z,29.67
2022-11-29T23:24:00.776Z,27.90
2022-11-29T23:26:30.529Z,26.10
2022-11-29T23:28:58.517Z,25.63
2022-11-29T23:31:25.517Z,27.65
2022-11-29T23:33:52.265Z,26.33
2022-11-29T23:36:19.154Z,27.02
2022-11-29T23:38:46.186Z,26.98
2022-11-29T23:41:13.052Z,29.40
2022-11-29T23:43:41.205Z,27.30
2022-11-29T23:46:19.482Z,30.13
2022-11-29T23:48:46.356Z,31.10
2022-11-29T23:51:13.621Z,28.23
2022-11-29T23:53:40.993Z,28.50
2022-11-29T23:56:13.115Z,29.42
2022-11-29T23:58:39.843Z,29.58
